Shocks Mills, Pennsylvania
Current Conditions -  °F | °C
As of 3:56 PM on Monday 22 Dec 2014 (Local Time) from KMDT Reporting Station
Overcast Overcast  
Wind Chill: 36°   Ceiling: 3500
Heat Index: 36°   Visibility: 7mi
Dew Point: 27°   Wind: 0mph
Humidity: 70%   Direction: NA
Pressure: 30.18"   Gusts: NA
Location:  40.0731°N, 76.571°W
Report Text: KMDT 222056Z 00000KT 7SM FEW020 OVC035 02/M03 A3018 RMK AO2 SLP223 VCSH T00221028 56019
Loading
Personal Weather Stations






























Interactive Weather Map New forecast layout! Learn more

10-Day Weather Forecast

Advertisements
Track Severe Weather on mobile